Time;durP1;ratioP1;P1;durP2;ratioP2;P2;SDS_P1;SDS_P2;PMS_P1;PMS_P2;Temp;Humidity;BMP_temperature;BMP_pressure;BME280_temperature;BME280_humidity;BME280_pressure;Samples;Min_cycle;Max_cycle;Signal;HPM_P1;HPM_P2
2022/12/17 13:08:22;;;;;;;85.43;35.25;;;0.60;99.90;;;;;;5071932;28;20481;-72
2022/12/17 13:10:51;;;;;;;83.97;34.78;;;0.60;99.90;;;;;;5056133;28;20396;-72
2022/12/17 13:13:17;;;;;;;90.75;35.47;;;0.60;99.90;;;;;;5073035;28;20036;-72
2022/12/17 13:15:50;;;;;;;91.88;37.85;;;0.70;99.90;;;;;;5069884;28;20146;-72
2022/12/17 13:18:35;;;;;;;87.53;36.05;;;0.70;99.90;;;;;;5072227;28;20039;-72
2022/12/17 13:21:16;;;;;;;79.43;32.97;;;0.70;99.90;;;;;;5055892;28;20402;-73
2022/12/17 13:23:42;;;;;;;96.95;36.80;;;0.70;99.90;;;;;;5035810;28;20499;-72
2022/12/17 13:26:32;;;;;;;86.97;36.00;;;0.60;99.90;;;;;;5061918;28;20059;-72
2022/12/17 13:29:10;;;;;;;84.38;34.63;;;0.50;99.90;;;;;;5072648;28;20055;-72
2022/12/17 13:32:02;;;;;;;85.68;34.85;;;0.40;99.90;;;;;;5072169;28;20082;-72
2022/12/17 13:35:12;;;;;;;82.80;32.60;;;0.40;99.90;;;;;;5073100;28;20476;-72
2022/12/17 13:38:06;;;;;;;90.22;34.92;;;0.30;99.90;;;;;;5053895;28;20033;-72
2022/12/17 13:40:43;;;;;;;83.95;32.00;;;0.30;99.90;;;;;;5068495;28;20050;-72
2022/12/17 13:43:22;;;;;;;77.22;31.85;;;0.30;99.90;;;;;;5072766;28;20029;-72
2022/12/17 13:45:50;;;;;;;81.60;31.90;;;0.30;99.90;;;;;;5072993;28;20118;-72
2022/12/17 13:48:25;;;;;;;74.55;28.42;;;0.30;99.90;;;;;;5073102;28;20056;-72
2022/12/17 13:51:02;;;;;;;84.72;31.50;;;0.20;99.90;;;;;;5072992;28;20020;-72
2022/12/17 13:53:29;;;;;;;80.30;30.58;;;0.20;99.90;;;;;;5070353;28;20029;-72
2022/12/17 13:55:56;;;;;;;76.80;31.65;;;0.20;99.90;;;;;;5073098;28;20065;-72
2022/12/17 13:58:28;;;;;;;83.10;31.58;;;0.20;99.90;;;;;;5071725;28;20102;-72
2022/12/17 14:01:08;;;;;;;79.15;31.08;;;0.20;99.90;;;;;;5055429;28;20059;-72
2022/12/17 14:03:35;;;;;;;84.00;32.83;;;0.20;99.90;;;;;;5071064;28;20032;-72
2022/12/17 14:06:01;;;;;;;87.30;34.55;;;0.10;99.90;;;;;;5072517;28;20025;-72
2022/12/17 14:08:30;;;;;;;83.05;32.25;;;0.10;99.90;;;;;;5072903;28;20020;-72
2022/12/17 14:12:20;;;;;;;80.90;31.77;;;0.10;99.90;;;;;;5073072;28;20365;-72
2022/12/17 14:13:44;;;;;;;87.97;33.00;;;0.10;99.90;;;;;;5066126;28;20039;-72
2022/12/17 14:16:15;;;;;;;79.78;30.10;;;0.00;99.90;;;;;;5072397;28;20036;-72
2022/12/17 14:18:46;;;;;;;85.53;31.60;;;0.00;99.90;;;;;;5072625;28;20054;-72
2022/12/17 14:21:12;;;;;;;84.88;31.95;;;-0.10;99.90;;;;;;5072268;28;20059;-72
2022/12/17 14:23:39;;;;;;;91.53;33.88;;;-0.20;99.90;;;;;;5053378;28;20063;-72
2022/12/17 14:26:08;;;;;;;92.65;33.90;;;-0.20;99.90;;;;;;5072724;28;20020;-72
2022/12/17 14:28:35;;;;;;;82.70;30.88;;;-0.30;99.90;;;;;;5072149;28;20086;-72
2022/12/17 14:31:22;;;;;;;81.78;31.95;;;-0.20;99.90;;;;;;5072777;28;20028;-72
2022/12/17 14:34:06;;;;;;;80.35;30.52;;;-0.20;99.90;;;;;;5064887;28;20079;-72
2022/12/17 14:36:34;;;;;;;84.75;32.05;;;-0.30;99.90;;;;;;5071718;28;20027;-72
2022/12/17 14:39:09;;;;;;;81.93;31.42;;;-0.30;99.90;;;;;;5071253;28;20029;-72
2022/12/17 14:44:24;;;;;;;83.05;31.42;;;-0.30;99.90;;;;;;5072547;28;20451;-72
2022/12/17 14:47:11;;;;;;;89.78;33.05;;;-0.30;99.90;;;;;;5072436;28;20098;-72
2022/12/17 14:49:46;;;;;;;83.78;30.17;;;-0.30;99.90;;;;;;5070720;28;20039;-72
2022/12/17 14:52:12;;;;;;;79.88;30.25;;;-0.30;99.90;;;;;;5072526;28;20071;-72
2022/12/17 14:54:45;;;;;;;86.43;31.85;;;-0.40;99.90;;;;;;5072169;28;20396;-72
2022/12/17 14:57:20;;;;;;;96.72;34.50;;;-0.40;99.90;;;;;;5072043;28;20036;-72
2022/12/17 14:59:46;;;;;;;86.88;32.75;;;-0.40;99.90;;;;;;5071037;28;20064;-72
2022/12/17 15:02:27;;;;;;;90.45;32.38;;;-0.40;99.90;;;;;;5072291;28;20071;-72
2022/12/17 15:04:56;;;;;;;87.07;31.50;;;-0.40;99.90;;;;;;5071672;28;20028;-72
2022/12/17 15:07:24;;;;;;;85.07;30.85;;;-0.40;99.90;;;;;;5072327;28;20017;-73
2022/12/17 15:09:51;;;;;;;88.95;31.25;;;-0.40;99.90;;;;;;5071510;28;20499;-72
2022/12/17 15:12:22;;;;;;;81.70;30.77;;;-0.50;99.90;;;;;;5071412;28;20036;-72
2022/12/17 15:14:47;;;;;;;77.28;29.30;;;-0.50;99.90;;;;;;5075231;28;20516;-73
2022/12/17 15:17:14;;;;;;;76.38;27.05;;;-0.60;99.90;;;;;;5070879;28;20079;-72
2022/12/17 15:19:40;;;;;;;86.30;30.92;;;-0.60;99.90;;;;;;5067328;28;20040;-72
2022/12/17 15:22:09;;;;;;;85.15;29.75;;;-0.70;99.90;;;;;;5071877;28;20024;-72
2022/12/17 15:24:34;;;;;;;84.93;31.85;;;-0.70;99.90;;;;;;5074069;28;20035;-72
2022/12/17 15:27:00;;;;;;;86.57;31.55;;;-0.80;99.90;;;;;;5071923;28;20048;-72
2022/12/17 15:29:25;;;;;;;89.05;31.13;;;-0.80;99.90;;;;;;5072611;28;20032;-72
2022/12/17 15:31:51;;;;;;;73.75;26.52;;;-0.80;99.90;;;;;;5066240;28;20028;-72
2022/12/17 15:34:16;;;;;;;74.32;28.48;;;-0.80;99.90;;;;;;5066032;28;20039;-73
2022/12/17 15:36:42;;;;;;;85.88;30.15;;;-0.80;99.90;;;;;;5072180;28;20036;-72
2022/12/17 15:39:08;;;;;;;80.72;29.63;;;-0.90;99.90;;;;;;5072622;28;20028;-72
2022/12/17 15:44:18;;;;;;;71.75;28.08;;;-0.90;99.90;;;;;;5074154;28;20076;-72
2022/12/17 15:46:43;;;;;;;76.72;30.40;;;-0.90;99.90;;;;;;5072959;28;20029;-72
2022/12/17 15:49:09;;;;;;;79.05;30.70;;;-1.00;99.90;;;;;;5068651;28;20016;-72
2022/12/17 15:51:34;;;;;;;77.25;29.13;;;-1.00;99.90;;;;;;5057310;28;20032;-72
2022/12/17 15:54:00;;;;;;;87.03;31.40;;;-1.00;99.90;;;;;;5070971;28;20600;-72
2022/12/17 15:56:27;;;;;;;76.38;29.95;;;-1.00;99.90;;;;;;5071626;28;20123;-72
2022/12/17 15:58:56;;;;;;;77.57;30.65;;;-1.10;99.90;;;;;;5074604;28;20044;-72
2022/12/17 16:01:22;;;;;;;79.53;29.90;;;-1.10;99.90;;;;;;5075026;28;20024;-72
2022/12/17 16:03:51;;;;;;;85.25;34.17;;;-1.00;99.90;;;;;;5063411;28;20017;-72
2022/12/17 16:06:16;;;;;;;82.20;31.73;;;-1.00;99.90;;;;;;5070811;28;20060;-72
2022/12/17 16:08:42;;;;;;;85.60;33.88;;;-1.00;99.90;;;;;;5073129;28;20051;-72
2022/12/17 16:11:09;;;;;;;72.95;28.38;;;-0.90;99.90;;;;;;5074604;28;20025;-72
2022/12/17 16:13:36;;;;;;;74.55;31.35;;;-0.90;99.90;;;;;;5054740;28;20388;-73
2022/12/17 16:16:02;;;;;;;72.88;29.98;;;-1.00;99.90;;;;;;5074219;28;20021;-72
2022/12/17 16:18:28;;;;;;;78.75;32.28;;;-1.00;99.90;;;;;;5064948;28;20119;-72
2022/12/17 16:20:53;;;;;;;66.28;27.30;;;-1.00;99.90;;;;;;5051694;28;20148;-72
2022/12/17 16:23:19;;;;;;;73.65;30.42;;;-1.10;99.90;;;;;;5073348;28;20534;-72
2022/12/17 16:25:55;;;;;;;71.07;28.35;;;-1.10;99.90;;;;;;5060020;28;20035;-72
2022/12/17 16:28:20;;;;;;;71.78;29.35;;;-1.10;99.90;;;;;;5070972;28;20069;-72
2022/12/17 16:30:57;;;;;;;72.13;28.95;;;-1.10;99.90;;;;;;5074015;28;20435;-72
2022/12/17 16:33:22;;;;;;;82.72;32.78;;;-1.10;99.90;;;;;;5072275;28;20017;-72
2022/12/17 16:35:52;;;;;;;81.53;31.13;;;-1.10;99.90;;;;;;5065749;28;20362;-72
2022/12/17 16:38:17;;;;;;;73.40;30.13;;;-1.10;99.90;;;;;;5074459;28;20124;-73
2022/12/17 16:40:43;;;;;;;87.78;33.50;;;-1.10;99.90;;;;;;5073041;28;20111;-72
2022/12/17 16:43:09;;;;;;;75.93;31.95;;;-1.20;99.90;;;;;;5069324;28;20031;-73
2022/12/17 16:45:34;;;;;;;82.13;32.47;;;-1.20;99.90;;;;;;5072151;28;20499;-72
2022/12/17 16:48:00;;;;;;;82.45;32.47;;;-1.20;99.90;;;;;;5070700;28;20063;-72
2022/12/17 16:50:28;;;;;;;88.00;35.47;;;-1.20;99.90;;;;;;5072035;28;20108;-72
2022/12/17 16:52:54;;;;;;;82.43;34.38;;;-1.10;99.90;;;;;;5071672;28;20027;-72
2022/12/17 16:55:19;;;;;;;85.65;32.30;;;-1.00;99.90;;;;;;5067321;28;20103;-73
2022/12/17 16:57:46;;;;;;;95.03;36.80;;;-1.10;99.90;;;;;;5070586;28;20084;-72
2022/12/17 17:00:12;;;;;;;89.53;35.80;;;-1.00;99.90;;;;;;5068554;28;20050;-72
2022/12/17 17:02:37;;;;;;;94.80;37.75;;;-1.10;99.90;;;;;;5073052;28;20376;-72
2022/12/17 17:05:03;;;;;;;95.95;38.47;;;-1.10;99.90;;;;;;5071629;28;20020;-72
2022/12/17 17:07:29;;;;;;;87.10;33.97;;;-1.10;99.90;;;;;;5053643;28;20044;-73
2022/12/17 17:09:54;;;;;;;94.68;36.60;;;-1.10;99.90;;;;;;5069848;28;20020;-72
2022/12/17 17:12:20;;;;;;;91.70;36.55;;;-1.10;99.90;;;;;;5071378;28;20403;-73
2022/12/17 17:14:45;;;;;;;90.30;34.30;;;-1.10;99.90;;;;;;5066938;28;20031;-73
2022/12/17 17:17:11;;;;;;;88.45;34.58;;;-1.10;99.90;;;;;;5073113;28;20048;-73
2022/12/17 17:19:36;;;;;;;90.28;33.97;;;-1.10;99.90;;;;;;5071571;28;20082;-73
2022/12/17 17:22:02;;;;;;;84.25;35.28;;;-1.10;99.90;;;;;;5071642;28;20021;-73
2022/12/17 17:24:27;;;;;;;98.45;35.40;;;-1.20;99.90;;;;;;5066846;28;20485;-73
2022/12/17 17:26:54;;;;;;;83.40;32.78;;;-1.20;99.90;;;;;;5067244;28;20071;-72
2022/12/17 17:29:20;;;;;;;90.25;34.50;;;-1.20;99.90;;;;;;5073646;28;20086;-73
2022/12/17 17:31:45;;;;;;;88.88;33.40;;;-1.30;99.90;;;;;;5071943;28;20033;-73
2022/12/17 17:34:14;;;;;;;90.43;35.42;;;-1.30;99.90;;;;;;5057792;28;20037;-73
2022/12/17 17:36:40;;;;;;;83.50;30.55;;;-1.40;99.90;;;;;;5052557;28;20492;-73
2022/12/17 17:39:06;;;;;;;90.93;34.78;;;-1.40;99.90;;;;;;5053173;28;20113;-72
2022/12/17 17:41:33;;;;;;;96.00;34.55;;;-1.50;99.90;;;;;;5067625;28;20468;-73
2022/12/17 17:44:05;;;;;;;91.93;35.30;;;-1.50;99.90;;;;;;5073583;28;20025;-72
2022/12/17 17:46:31;;;;;;;88.73;33.53;;;-1.50;99.90;;;;;;5073315;28;20027;-72
2022/12/17 17:48:59;;;;;;;83.07;30.60;;;-1.50;99.90;;;;;;5073514;28;20036;-72
2022/12/17 17:51:27;;;;;;;86.65;31.70;;;-1.60;99.90;;;;;;5071598;28;20032;-72
2022/12/17 17:53:54;;;;;;;85.22;32.42;;;-1.60;99.90;;;;;;5072457;28;20020;-72
2022/12/17 17:56:23;;;;;;;86.30;31.27;;;-1.60;99.90;;;;;;5071509;28;20029;-73
2022/12/17 17:58:51;;;;;;;81.20;31.38;;;-1.60;99.90;;;;;;5071898;28;20049;-73
2022/12/17 18:01:31;;;;;;;84.22;28.98;;;-1.70;99.90;;;;;;5071271;28;20400;-73
2022/12/17 18:03:59;;;;;;;81.80;30.95;;;-1.70;99.90;;;;;;5071391;28;20500;-73
2022/12/17 18:06:25;;;;;;;86.85;32.10;;;-1.80;99.90;;;;;;5072341;28;20361;-73
2022/12/17 18:08:51;;;;;;;80.18;30.77;;;-1.80;99.90;;;;;;5072586;28;20024;-73
2022/12/17 18:11:19;;;;;;;84.53;30.10;;;-1.90;99.90;;;;;;5073347;28;20024;-73
2022/12/17 18:13:54;;;;;;;89.25;31.33;;;-2.00;99.90;;;;;;5072459;28;20389;-73
2022/12/17 18:16:29;;;;;;;79.25;28.38;;;-2.00;99.90;;;;;;5071954;28;20032;-73
2022/12/17 18:18:57;;;;;;;93.68;32.10;;;-2.00;99.90;;;;;;5071909;28;20040;-73
2022/12/17 18:21:24;;;;;;;84.93;29.63;;;-2.10;99.90;;;;;;5071904;28;20040;-73
2022/12/17 18:24:01;;;;;;;86.50;31.05;;;-2.00;99.90;;;;;;5072707;28;20043;-73
2022/12/17 18:26:29;;;;;;;84.00;29.10;;;-2.10;99.90;;;;;;5073449;28;20027;-73
2022/12/17 18:28:55;;;;;;;94.63;30.42;;;-2.10;99.90;;;;;;5071521;28;20031;-73
2022/12/17 18:31:24;;;;;;;100.32;34.15;;;-2.10;99.90;;;;;;5050485;28;20021;-73
2022/12/17 18:33:55;;;;;;;91.07;31.05;;;-2.10;99.90;;;;;;5072736;28;20059;-73
2022/12/17 18:36:26;;;;;;;88.67;29.37;;;-2.10;99.90;;;;;;5071264;28;20099;-73
2022/12/17 18:39:10;;;;;;;82.53;30.25;;;-2.20;99.90;;;;;;5072525;28;20034;-73
2022/12/17 18:44:20;;;;;;;79.53;26.05;;;-2.20;99.90;;;;;;5072612;28;20138;-73
2022/12/17 18:46:46;;;;;;;100.38;32.55;;;-2.30;99.90;;;;;;5072488;28;20050;-73
2022/12/17 18:49:14;;;;;;;104.50;36.58;;;-2.30;99.90;;;;;;5072611;28;20028;-73
2022/12/17 18:51:41;;;;;;;107.88;35.25;;;-2.30;99.90;;;;;;5071324;28;20040;-73
2022/12/17 18:54:11;;;;;;;107.05;37.45;;;-2.30;99.90;;;;;;5072075;28;20027;-73
2022/12/17 18:56:36;;;;;;;97.57;31.17;;;-2.30;99.90;;;;;;5072215;28;20051;-73
2022/12/17 18:59:04;;;;;;;96.72;31.38;;;-2.30;99.90;;;;;;5072568;28;20044;-73
2022/12/17 19:01:32;;;;;;;104.43;33.22;;;-2.40;99.90;;;;;;5070256;28;20108;-73
2022/12/17 19:04:07;;;;;;;99.30;31.55;;;-2.50;99.90;;;;;;5072577;28;20554;-73
2022/12/17 19:06:34;;;;;;;85.70;26.90;;;-2.50;99.90;;;;;;5071648;28;20484;-74
2022/12/17 19:09:00;;;;;;;105.45;32.95;;;-2.60;99.90;;;;;;5072281;28;20032;-73
2022/12/17 19:11:26;;;;;;;105.15;33.38;;;-2.70;99.90;;;;;;5071344;28;20017;-73
2022/12/17 19:13:51;;;;;;;97.38;32.70;;;-2.70;99.90;;;;;;5072073;28;20108;-73
2022/12/17 19:16:22;;;;;;;108.22;32.83;;;-2.70;99.90;;;;;;5071991;28;20468;-73
2022/12/17 19:18:55;;;;;;;97.90;31.20;;;-2.70;99.90;;;;;;5072140;28;20510;-74
2022/12/17 19:21:21;;;;;;;93.55;29.00;;;-2.70;99.90;;;;;;5052345;28;20381;-73
2022/12/17 19:23:48;;;;;;;93.63;29.27;;;-2.70;99.90;;;;;;5072093;28;20523;-73
2022/12/17 19:26:16;;;;;;;93.88;32.58;;;-2.70;99.90;;;;;;5072231;28;20025;-73
2022/12/17 19:28:44;;;;;;;101.22;33.80;;;-2.80;99.90;;;;;;5071823;28;20516;-72
2022/12/17 19:31:10;;;;;;;110.47;30.63;;;-2.80;99.90;;;;;;5070143;28;20070;-73
2022/12/17 19:33:36;;;;;;;99.70;29.85;;;-2.80;99.90;;;;;;5072202;28;20037;-73
2022/12/17 19:36:08;;;;;;;92.30;30.42;;;-2.90;99.90;;;;;;5051897;28;20691;-72
2022/12/17 19:38:34;;;;;;;93.40;31.27;;;-2.90;99.90;;;;;;5056719;28;20330;-73
2022/12/17 19:41:08;;;;;;;98.32;31.02;;;-2.90;99.90;;;;;;5059204;28;20021;-72
2022/12/17 19:43:33;;;;;;;103.18;30.83;;;-2.90;99.90;;;;;;5065258;28;20021;-72
2022/12/17 19:46:04;;;;;;;97.72;31.75;;;-2.80;99.90;;;;;;5069443;28;20021;-73
2022/12/17 19:48:35;;;;;;;97.90;29.45;;;-2.80;99.90;;;;;;5050754;28;20103;-73
2022/12/17 19:51:01;;;;;;;85.65;27.38;;;-2.80;99.90;;;;;;5065356;28;20045;-73
2022/12/17 19:53:28;;;;;;;93.43;30.50;;;-2.80;99.90;;;;;;5062704;28;20025;-73
2022/12/17 19:55:55;;;;;;;110.60;34.72;;;-2.70;99.90;;;;;;5069661;28;20024;-73
2022/12/17 19:58:22;;;;;;;96.40;31.75;;;-2.70;99.90;;;;;;5070287;28;20045;-73
2022/12/17 20:00:50;;;;;;;125.28;31.20;;;-2.70;99.90;;;;;;5068993;28;20020;-74
2022/12/17 20:03:19;;;;;;;94.30;30.67;;;-2.70;99.90;;;;;;5071071;28;20063;-73
2022/12/17 20:05:45;;;;;;;96.60;26.70;;;-2.70;99.90;;;;;;5070871;28;20025;-73
2022/12/17 20:08:12;;;;;;;88.18;29.65;;;-2.80;99.90;;;;;;5071845;28;20063;-74
2022/12/17 20:10:37;;;;;;;88.25;26.48;;;-2.80;99.90;;;;;;5070459;28;20020;-73
2022/12/17 20:13:03;;;;;;;107.45;30.25;;;-2.90;99.90;;;;;;5066989;28;20107;-73
2022/12/17 20:15:29;;;;;;;96.30;26.02;;;-3.00;99.90;;;;;;5071422;28;20059;-75
2022/12/17 20:17:54;;;;;;;98.78;27.77;;;-3.10;99.90;;;;;;5070801;28;20029;-74
2022/12/17 20:20:20;;;;;;;75.40;26.35;;;-3.20;99.90;;;;;;5072800;28;20017;-74
2022/12/17 20:22:45;;;;;;;73.57;23.00;;;-3.10;99.90;;;;;;5071727;28;20047;-73
2022/12/17 20:25:11;;;;;;;84.65;26.65;;;-3.10;99.90;;;;;;5051561;28;20097;-73
2022/12/17 20:27:40;;;;;;;71.05;22.60;;;-3.10;99.90;;;;;;5073107;28;20373;-73
2022/12/17 20:30:06;;;;;;;87.45;26.98;;;-3.10;99.90;;;;;;5071471;28;20031;-73
2022/12/17 20:32:33;;;;;;;91.05;30.00;;;-3.00;99.90;;;;;;5070978;28;20024;-73
2022/12/17 20:34:59;;;;;;;82.28;26.92;;;-3.10;99.90;;;;;;5066431;28;20035;-73
2022/12/17 20:37:24;;;;;;;100.85;30.95;;;-3.10;99.90;;;;;;5066579;28;20021;-73
2022/12/17 20:39:50;;;;;;;79.35;26.75;;;-3.10;99.90;;;;;;5071190;28;20527;-73
2022/12/17 20:42:16;;;;;;;97.07;32.15;;;-3.10;99.90;;;;;;5072288;28;20392;-73
2022/12/17 20:44:47;;;;;;;84.90;25.90;;;-3.10;99.90;;;;;;5071954;28;20081;-75
2022/12/17 20:47:13;;;;;;;90.28;28.10;;;-3.10;99.90;;;;;;5053636;28;20066;-71
2022/12/17 20:49:40;;;;;;;85.47;29.17;;;-3.10;99.90;;;;;;5068113;28;20021;-73
2022/12/17 20:52:07;;;;;;;77.47;25.08;;;-3.00;99.90;;;;;;5052010;28;20036;-72
2022/12/17 20:54:33;;;;;;;86.00;29.77;;;-3.10;99.90;;;;;;5069153;28;20412;-73
2022/12/17 20:56:59;;;;;;;83.25;28.00;;;-3.10;99.90;;;;;;5072014;28;20059;-73
2022/12/17 20:59:27;;;;;;;80.30;28.58;;;-3.10;99.90;;;;;;5072405;28;20373;-73
2022/12/17 21:01:52;;;;;;;80.57;27.67;;;-3.10;99.90;;;;;;5070906;28;20048;-72
2022/12/17 21:04:18;;;;;;;78.55;27.23;;;-3.20;99.90;;;;;;5068177;28;20134;-73
2022/12/17 21:06:46;;;;;;;82.88;28.17;;;-3.20;99.90;;;;;;5071214;28;20024;-73
2022/12/17 21:09:14;;;;;;;79.80;25.75;;;-3.20;99.90;;;;;;5070148;28;20033;-74
2022/12/17 21:11:40;;;;;;;79.85;28.95;;;-3.20;99.90;;;;;;5071370;28;20051;-72
2022/12/17 21:14:09;;;;;;;87.55;29.02;;;-3.20;99.90;;;;;;5069597;28;20029;-72
2022/12/17 21:16:37;;;;;;;83.68;29.33;;;-3.10;99.90;;;;;;5070357;28;20021;-73
2022/12/17 21:19:03;;;;;;;90.88;29.48;;;-3.10;99.90;;;;;;5069913;28;20040;-74
2022/12/17 21:21:31;;;;;;;96.30;31.30;;;-3.10;99.90;;;;;;5069168;28;20476;-71
2022/12/17 21:23:58;;;;;;;84.47;27.92;;;-3.10;99.90;;;;;;5057990;28;20101;-73
2022/12/17 21:26:29;;;;;;;94.53;31.92;;;-3.00;99.90;;;;;;5069133;28;20515;-73
2022/12/17 21:28:55;;;;;;;90.22;31.65;;;-3.00;99.90;;;;;;5064582;28;20167;-72
2022/12/17 21:31:30;;;;;;;83.13;29.27;;;-3.10;99.90;;;;;;5068492;28;20029;-71
2022/12/17 21:33:59;;;;;;;93.40;29.92;;;-3.10;99.90;;;;;;5052658;28;20042;-73
2022/12/17 21:36:26;;;;;;;84.38;29.38;;;-3.10;99.90;;;;;;5070596;28;20063;-73
2022/12/17 21:38:52;;;;;;;90.70;29.27;;;-3.10;99.90;;;;;;5070996;28;20064;-73
2022/12/17 21:41:21;;;;;;;85.93;27.58;;;-3.10;99.90;;;;;;5070328;28;20082;-73
2022/12/17 21:43:46;;;;;;;93.57;28.88;;;-3.10;99.90;;;;;;5070955;28;20036;-74
2022/12/17 21:46:12;;;;;;;106.65;29.13;;;-3.10;99.90;;;;;;5071534;28;20027;-73
2022/12/17 21:48:40;;;;;;;100.10;32.67;;;-3.10;99.90;;;;;;5070267;28;20100;-73
2022/12/17 21:51:08;;;;;;;89.72;30.67;;;-3.10;99.90;;;;;;5069469;28;20107;-73
2022/12/17 21:53:34;;;;;;;103.88;29.70;;;-3.10;99.90;;;;;;5071102;28;20032;-73
2022/12/17 21:56:12;;;;;;;98.90;30.60;;;-3.10;99.90;;;;;;5067074;28;20025;-73
2022/12/17 21:58:39;;;;;;;94.32;30.90;;;-3.00;99.90;;;;;;5068631;28;20048;-73
2022/12/17 22:01:18;;;;;;;96.47;32.50;;;-3.00;99.90;;;;;;5066634;28;20384;-73
2022/12/17 22:03:44;;;;;;;99.22;30.70;;;-3.00;99.90;;;;;;5063793;28;20028;-73
2022/12/17 22:06:13;;;;;;;99.10;32.15;;;-3.00;99.90;;;;;;5072982;28;20468;-73
2022/12/17 22:08:39;;;;;;;93.57;29.90;;;-3.00;99.90;;;;;;5072666;28;20020;-73
2022/12/17 22:11:16;;;;;;;74.00;23.85;;;-3.10;99.90;;;;;;5069552;28;20024;-73
2022/12/17 22:14:01;;;;;;;94.57;28.30;;;-3.10;99.90;;;;;;5065180;28;20025;-73
2022/12/17 22:16:28;;;;;;;88.55;30.27;;;-3.20;99.90;;;;;;5071104;28;20033;-74
2022/12/17 22:18:54;;;;;;;80.68;29.25;;;-3.20;99.90;;;;;;5066642;28;20068;-73
2022/12/17 22:21:20;;;;;;;83.70;28.65;;;-3.20;99.90;;;;;;5070178;28;20060;-73
2022/12/17 22:23:47;;;;;;;94.15;30.25;;;-3.30;99.90;;;;;;5051840;28;20047;-73
2022/12/17 22:26:14;;;;;;;82.75;26.48;;;-3.30;99.90;;;;;;5068765;28;20082;-73
2022/12/17 22:28:42;;;;;;;88.15;29.13;;;-3.40;99.90;;;;;;5070150;28;20021;-73
2022/12/17 22:33:55;;;;;;;85.28;27.25;;;-3.40;99.90;;;;;;5064900;28;20027;-73
2022/12/17 22:36:20;;;;;;;84.75;29.13;;;-3.50;99.90;;;;;;5069608;28;20025;-72
2022/12/17 22:38:46;;;;;;;82.78;26.90;;;-3.50;99.90;;;;;;5072491;28;20040;-73
2022/12/17 22:43:28;;;;;;;85.78;28.42;;;-3.60;99.90;;;;;;5060754;28;20029;-73
2022/12/17 22:44:03;;;;;;;92.18;29.55;;;-3.60;99.90;;;;;;5064823;28;20396;-73
2022/12/17 22:46:30;;;;;;;83.65;27.35;;;-3.60;99.90;;;;;;5050653;28;20039;-73
2022/12/17 22:48:56;;;;;;;82.45;27.65;;;-3.70;99.90;;;;;;5081609;28;20025;-73
2022/12/17 22:51:23;;;;;;;92.25;29.92;;;-3.70;99.90;;;;;;5070636;28;20024;-73
2022/12/17 22:53:48;;;;;;;86.88;28.75;;;-3.70;99.90;;;;;;5084276;28;20026;-73
2022/12/17 22:56:14;;;;;;;86.40;27.98;;;-3.80;99.90;;;;;;5069867;28;20103;-73
2022/12/17 22:58:40;;;;;;;95.55;30.60;;;-3.90;99.90;;;;;;5070350;28;20053;-73
2022/12/17 23:01:06;;;;;;;85.03;31.73;;;-3.90;99.90;;;;;;5074618;28;20507;-74
2022/12/17 23:03:31;;;;;;;86.65;30.08;;;-4.00;99.90;;;;;;5068433;28;20074;-74
2022/12/17 23:06:07;;;;;;;95.35;31.83;;;-4.00;99.90;;;;;;5070899;28;20074;-74
2022/12/17 23:08:33;;;;;;;90.90;30.48;;;-4.10;99.90;;;;;;5070827;28;20025;-72
2022/12/17 23:11:11;;;;;;;87.78;31.00;;;-4.20;99.90;;;;;;5069395;28;20314;-73
2022/12/17 23:13:38;;;;;;;88.80;27.58;;;-4.20;99.90;;;;;;5062942;28;20035;-73
2022/12/17 23:16:04;;;;;;;87.40;27.98;;;-4.30;99.90;;;;;;5076742;28;20021;-73
2022/12/17 23:18:31;;;;;;;89.13;29.67;;;-4.30;99.90;;;;;;5070147;28;20119;-73
2022/12/17 23:21:08;;;;;;;89.32;28.20;;;-4.40;99.90;;;;;;5069144;28;20013;-73
2022/12/17 23:23:34;;;;;;;93.13;28.85;;;-4.40;99.90;;;;;;5051165;28;20160;-72
2022/12/17 23:26:08;;;;;;;84.63;26.90;;;-4.40;99.90;;;;;;5071338;28;20108;-72
2022/12/17 23:28:34;;;;;;;79.07;27.98;;;-4.40;99.90;;;;;;5072136;28;20021;-73
2022/12/17 23:31:16;;;;;;;86.22;28.17;;;-4.50;99.90;;;;;;5066409;28;20025;-73
2022/12/17 23:33:42;;;;;;;89.75;26.80;;;-4.60;99.90;;;;;;5066682;28;20032;-73
2022/12/17 23:36:21;;;;;;;89.85;27.55;;;-4.60;99.90;;;;;;5074822;28;20448;-73
2022/12/17 23:38:47;;;;;;;77.65;23.55;;;-4.70;99.90;;;;;;5073294;28;20055;-73
2022/12/17 23:41:16;;;;;;;88.82;28.83;;;-4.80;99.90;;;;;;5071241;28;20021;-73
2022/12/17 23:43:41;;;;;;;100.88;28.67;;;-4.80;99.90;;;;;;5074553;28;20028;-73
2022/12/17 23:46:08;;;;;;;89.93;28.58;;;-4.90;99.90;;;;;;5074579;28;20021;-73
2022/12/17 23:48:37;;;;;;;89.53;28.33;;;-4.90;99.90;;;;;;5072613;28;20028;-73
2022/12/17 23:51:04;;;;;;;86.95;26.10;;;-4.90;99.90;;;;;;5073127;28;20021;-73
2022/12/17 23:53:31;;;;;;;93.35;28.55;;;-5.00;99.90;;;;;;5056404;28;20385;-72
2022/12/17 23:56:25;;;;;;;87.57;27.23;;;-5.00;99.90;;;;;;5060508;28;20013;-72
2022/12/17 23:59:00;;;;;;;87.97;28.20;;;-5.10;99.90;;;;;;5059938;28;20119;-72
